Aérodrome :
LOGIN :

S'inscrire | Disclaimer

   EN    FR    IT 

 










Légende :    VFR   VFR Marginal   IFR   IFR Intensif   IFR Très Intensif
Visi : 
Plafond : 
>= 8 km
>= 3000ft
5 à 8 km
1000 à 3000 ft
1500m à 5 km
500 à 1000 ft
800 à 1500m
200 à 500 ft
< 800m
< 200 ft
Symboles :   Orages  Brouillard  Fortes neiges  Fortes précipitations  Vent > 20 kt
SIGMETs :   Divers  Orages  Givrage  Turbulence  Onde Orograph.  Cendres Volcan.







- Altitude de l'aérodrome : 1411 ft
- Code IATA : SZG


LOWS - Salzburg

DERNIER METAR :
  • 250950Z 31006KT 9999 FEW050 BKN300 22/10 Q1014 NOSIG

METARs EXPIRÉS :
  • 250920Z 29006KT 9999 FEW050 BKN300 22/10 Q1015 NOSIG
  • 250850Z 28008G20KT 9999 FEW055 BKN300 21/10 Q1015 NOSIG
  • 250820Z VRB03KT 9999 FEW055 BKN300 19/11 Q1015 BECMG 32007KT
  • 250750Z 14005KT 9999 FEW060 BKN300 19/11 Q1015 NOSIG
  • 250720Z 15006KT 9999 FEW060 BKN300 17/10 Q1016 NOSIG

TAF TAF LOWS
Valide du 25 à 06h jusqu'au 26 à 06h UTC


250515Z 2506/2606 16007KT 9999 FEW070 BKN300 TX25/2513Z TN12/2606Z
BECMG 2508/2510 32007KT
TEMPO 2512/2517 32012G22KT
BECMG 2519/2521 16005KT SCT050 BKN070
BECMG 2522/2524 -RA BKN050
TEMPO 2600/2606 29010KT 6000 SHRA SCT020 BKN035
Pas de NOTAMs connus pour ce terrain.



MET'MAP, la Météo Aéronautique d'un coup d'oeil ! - Copyright ORBIFLY Décembre 2007 - Disclaimer

ORBIFLY MET'MAP TEAM :

Programmation & Développement : Alexandra Zaïnal
Conception & Développement : Baudouin d'Aumeries
Co-Programmation & Développement : Marc-Olivier Méhu
Soutien technique & logistique : Manuel Goepfert

Contact : metmap@orbifly.com




SOURCES & CREDITS :

   NOAA